sensor_id;sensor_type;location;lat;lon;timestamp;temperature;humidity
47168;DHT22;32931;47.778;17.806;2023-04-25T00:00:03;12.50;99.90
47168;DHT22;32931;47.778;17.806;2023-04-25T00:02:33;12.50;99.90
47168;DHT22;32931;47.778;17.806;2023-04-25T00:05:01;12.50;99.90
47168;DHT22;32931;47.778;17.806;2023-04-25T00:07:30;12.50;99.90
47168;DHT22;32931;47.778;17.806;2023-04-25T00:09:58;12.50;99.90
47168;DHT22;32931;47.778;17.806;2023-04-25T00:12:24;12.50;99.90
47168;DHT22;32931;47.778;17.806;2023-04-25T00:14:51;12.50;99.90
47168;DHT22;32931;47.778;17.806;2023-04-25T00:17:17;12.50;99.90
47168;DHT22;32931;47.778;17.806;2023-04-25T00:19:45;12.50;99.90
47168;DHT22;32931;47.778;17.806;2023-04-25T00:22:12;12.50;99.90
47168;DHT22;32931;47.778;17.806;2023-04-25T00:24:39;12.50;99.90
47168;DHT22;32931;47.778;17.806;2023-04-25T00:27:05;12.40;99.90
47168;DHT22;32931;47.778;17.806;2023-04-25T00:29:31;12.40;99.90
47168;DHT22;32931;47.778;17.806;2023-04-25T00:31:57;12.40;99.90
47168;DHT22;32931;47.778;17.806;2023-04-25T00:34:24;12.40;99.90
47168;DHT22;32931;47.778;17.806;2023-04-25T00:36:50;12.50;99.90
47168;DHT22;32931;47.778;17.806;2023-04-25T00:39:16;12.40;99.90
47168;DHT22;32931;47.778;17.806;2023-04-25T00:41:43;12.50;99.90
47168;DHT22;32931;47.778;17.806;2023-04-25T00:44:11;12.40;99.90
47168;DHT22;32931;47.778;17.806;2023-04-25T00:46:39;12.40;99.90
47168;DHT22;32931;47.778;17.806;2023-04-25T00:49:06;12.40;99.90
47168;DHT22;32931;47.778;17.806;2023-04-25T00:51:33;12.40;99.90
47168;DHT22;32931;47.778;17.806;2023-04-25T00:53:59;12.30;99.90
47168;DHT22;32931;47.778;17.806;2023-04-25T00:56:26;12.20;99.90
47168;DHT22;32931;47.778;17.806;2023-04-25T00:58:53;12.20;99.90
47168;DHT22;32931;47.778;17.806;2023-04-25T01:01:23;12.10;99.90
47168;DHT22;32931;47.778;17.806;2023-04-25T01:03:49;12.10;99.90
47168;DHT22;32931;47.778;17.806;2023-04-25T01:06:16;12.10;99.90
47168;DHT22;32931;47.778;17.806;2023-04-25T01:08:42;12.10;99.90
47168;DHT22;32931;47.778;17.806;2023-04-25T01:11:09;12.00;99.90
47168;DHT22;32931;47.778;17.806;2023-04-25T01:13:35;12.00;99.90
47168;DHT22;32931;47.778;17.806;2023-04-25T01:16:02;12.00;99.90
47168;DHT22;32931;47.778;17.806;2023-04-25T01:18:29;12.00;99.90
47168;DHT22;32931;47.778;17.806;2023-04-25T01:20:55;12.00;99.90
47168;DHT22;32931;47.778;17.806;2023-04-25T01:23:22;12.10;99.90
47168;DHT22;32931;47.778;17.806;2023-04-25T01:25:49;12.10;99.90
47168;DHT22;32931;47.778;17.806;2023-04-25T01:28:15;12.10;99.90
47168;DHT22;32931;47.778;17.806;2023-04-25T01:30:43;12.00;99.90
47168;DHT22;32931;47.778;17.806;2023-04-25T01:33:09;12.00;99.90
47168;DHT22;32931;47.778;17.806;2023-04-25T01:35:35;12.00;99.90
47168;DHT22;32931;47.778;17.806;2023-04-25T01:38:02;12.10;99.90
47168;DHT22;32931;47.778;17.806;2023-04-25T01:40:28;12.00;99.90
47168;DHT22;32931;47.778;17.806;2023-04-25T01:42:54;12.00;99.90
47168;DHT22;32931;47.778;17.806;2023-04-25T01:45:21;12.00;99.90
47168;DHT22;32931;47.778;17.806;2023-04-25T01:47:47;12.00;99.90
47168;DHT22;32931;47.778;17.806;2023-04-25T01:50:17;12.00;99.90
47168;DHT22;32931;47.778;17.806;2023-04-25T01:52:44;12.00;99.90
47168;DHT22;32931;47.778;17.806;2023-04-25T01:55:11;12.00;99.90
47168;DHT22;32931;47.778;17.806;2023-04-25T01:57:37;12.00;99.90
47168;DHT22;32931;47.778;17.806;2023-04-25T02:00:05;11.90;99.90
47168;DHT22;32931;47.778;17.806;2023-04-25T02:02:32;12.00;99.90
47168;DHT22;32931;47.778;17.806;2023-04-25T02:04:58;11.90;99.90
47168;DHT22;32931;47.778;17.806;2023-04-25T02:07:26;11.90;99.90
47168;DHT22;32931;47.778;17.806;2023-04-25T02:09:52;11.90;99.90
47168;DHT22;32931;47.778;17.806;2023-04-25T02:12:18;11.90;99.90
47168;DHT22;32931;47.778;17.806;2023-04-25T02:14:44;11.90;99.90
47168;DHT22;32931;47.778;17.806;2023-04-25T02:17:11;11.80;99.90
47168;DHT22;32931;47.778;17.806;2023-04-25T02:19:38;11.80;99.90
47168;DHT22;32931;47.778;17.806;2023-04-25T02:22:04;11.80;99.90
47168;DHT22;32931;47.778;17.806;2023-04-25T02:24:30;11.70;99.90
47168;DHT22;32931;47.778;17.806;2023-04-25T02:26:57;11.80;99.90
47168;DHT22;32931;47.778;17.806;2023-04-25T02:29:23;11.70;99.90
47168;DHT22;32931;47.778;17.806;2023-04-25T02:31:50;11.80;99.90
47168;DHT22;32931;47.778;17.806;2023-04-25T02:34:16;11.80;99.90
47168;DHT22;32931;47.778;17.806;2023-04-25T02:36:42;11.80;99.90
47168;DHT22;32931;47.778;17.806;2023-04-25T02:39:08;11.70;99.90
47168;DHT22;32931;47.778;17.806;2023-04-25T02:41:34;11.80;99.90
47168;DHT22;32931;47.778;17.806;2023-04-25T02:44:00;11.80;99.90
47168;DHT22;32931;47.778;17.806;2023-04-25T02:46:27;11.80;99.90
47168;DHT22;32931;47.778;17.806;2023-04-25T02:48:53;11.70;99.90
47168;DHT22;32931;47.778;17.806;2023-04-25T02:51:19;11.60;99.90
47168;DHT22;32931;47.778;17.806;2023-04-25T02:53:45;11.60;99.90
47168;DHT22;32931;47.778;17.806;2023-04-25T02:56:11;11.60;99.90
47168;DHT22;32931;47.778;17.806;2023-04-25T02:58:37;11.60;99.90
47168;DHT22;32931;47.778;17.806;2023-04-25T03:01:03;11.60;99.90
47168;DHT22;32931;47.778;17.806;2023-04-25T03:03:30;11.50;99.90
47168;DHT22;32931;47.778;17.806;2023-04-25T03:05:56;11.50;99.90
47168;DHT22;32931;47.778;17.806;2023-04-25T03:08:22;11.50;99.90
47168;DHT22;32931;47.778;17.806;2023-04-25T03:10:48;11.50;99.90
47168;DHT22;32931;47.778;17.806;2023-04-25T03:13:17;11.50;99.90
47168;DHT22;32931;47.778;17.806;2023-04-25T03:15:43;11.50;99.90
47168;DHT22;32931;47.778;17.806;2023-04-25T03:18:09;11.50;99.90
47168;DHT22;32931;47.778;17.806;2023-04-25T03:20:35;11.50;99.90
47168;DHT22;32931;47.778;17.806;2023-04-25T03:23:02;11.60;99.90
47168;DHT22;32931;47.778;17.806;2023-04-25T03:25:28;11.50;99.90
47168;DHT22;32931;47.778;17.806;2023-04-25T03:27:54;11.50;99.90
47168;DHT22;32931;47.778;17.806;2023-04-25T03:30:21;11.50;99.90
47168;DHT22;32931;47.778;17.806;2023-04-25T03:32:47;11.50;99.90
47168;DHT22;32931;47.778;17.806;2023-04-25T03:35:13;11.40;99.90
47168;DHT22;32931;47.778;17.806;2023-04-25T03:37:39;11.40;99.90
47168;DHT22;32931;47.778;17.806;2023-04-25T03:40:07;11.40;99.90
47168;DHT22;32931;47.778;17.806;2023-04-25T03:42:33;11.50;99.90
47168;DHT22;32931;47.778;17.806;2023-04-25T03:44:59;11.50;99.90
47168;DHT22;32931;47.778;17.806;2023-04-25T03:47:25;11.50;99.90
47168;DHT22;32931;47.778;17.806;2023-04-25T03:49:51;11.50;99.90
47168;DHT22;32931;47.778;17.806;2023-04-25T03:52:18;11.50;99.90
47168;DHT22;32931;47.778;17.806;2023-04-25T03:54:44;11.50;99.90
47168;DHT22;32931;47.778;17.806;2023-04-25T03:57:10;11.40;99.90
47168;DHT22;32931;47.778;17.806;2023-04-25T03:59:36;11.40;99.90
47168;DHT22;32931;47.778;17.806;2023-04-25T04:02:02;11.40;99.90
47168;DHT22;32931;47.778;17.806;2023-04-25T04:04:29;11.40;99.90
47168;DHT22;32931;47.778;17.806;2023-04-25T04:06:56;11.30;99.90
47168;DHT22;32931;47.778;17.806;2023-04-25T04:09:22;11.30;99.90
47168;DHT22;32931;47.778;17.806;2023-04-25T04:11:48;11.30;99.90
47168;DHT22;32931;47.778;17.806;2023-04-25T04:14:14;11.40;99.90
47168;DHT22;32931;47.778;17.806;2023-04-25T04:16:40;11.40;99.90
47168;DHT22;32931;47.778;17.806;2023-04-25T04:19:06;11.40;99.90
47168;DHT22;32931;47.778;17.806;2023-04-25T04:21:32;11.30;99.90
47168;DHT22;32931;47.778;17.806;2023-04-25T04:23:59;11.30;99.90
47168;DHT22;32931;47.778;17.806;2023-04-25T04:26:26;11.30;99.90
47168;DHT22;32931;47.778;17.806;2023-04-25T04:28:52;11.40;99.90
47168;DHT22;32931;47.778;17.806;2023-04-25T04:31:21;11.30;99.90
47168;DHT22;32931;47.778;17.806;2023-04-25T04:33:47;11.30;99.90
47168;DHT22;32931;47.778;17.806;2023-04-25T04:36:14;11.40;99.90
47168;DHT22;32931;47.778;17.806;2023-04-25T04:38:40;11.30;99.90
47168;DHT22;32931;47.778;17.806;2023-04-25T04:41:07;11.30;99.90
47168;DHT22;32931;47.778;17.806;2023-04-25T04:43:33;11.40;99.90
47168;DHT22;32931;47.778;17.806;2023-04-25T04:46:02;11.40;99.90
47168;DHT22;32931;47.778;17.806;2023-04-25T04:48:32;11.40;99.90
47168;DHT22;32931;47.778;17.806;2023-04-25T04:51:00;11.40;99.90
47168;DHT22;32931;47.778;17.806;2023-04-25T04:53:27;11.40;99.90
47168;DHT22;32931;47.778;17.806;2023-04-25T04:55:53;11.40;99.90
47168;DHT22;32931;47.778;17.806;2023-04-25T04:58:19;11.30;99.90
47168;DHT22;32931;47.778;17.806;2023-04-25T05:00:45;11.40;99.90
47168;DHT22;32931;47.778;17.806;2023-04-25T05:03:12;11.40;99.90
47168;DHT22;32931;47.778;17.806;2023-04-25T05:05:38;11.30;99.90
47168;DHT22;32931;47.778;17.806;2023-04-25T05:08:06;11.30;99.90
47168;DHT22;32931;47.778;17.806;2023-04-25T05:10:32;11.40;99.90
47168;DHT22;32931;47.778;17.806;2023-04-25T05:12:58;11.40;99.90
47168;DHT22;32931;47.778;17.806;2023-04-25T05:15:24;11.50;99.90
47168;DHT22;32931;47.778;17.806;2023-04-25T05:17:51;11.40;99.90
47168;DHT22;32931;47.778;17.806;2023-04-25T05:20:17;11.50;99.90
47168;DHT22;32931;47.778;17.806;2023-04-25T05:22:44;11.50;99.90
47168;DHT22;32931;47.778;17.806;2023-04-25T05:25:11;11.40;99.90
47168;DHT22;32931;47.778;17.806;2023-04-25T05:27:37;11.40;99.90
47168;DHT22;32931;47.778;17.806;2023-04-25T05:30:04;11.50;99.90
47168;DHT22;32931;47.778;17.806;2023-04-25T05:32:31;11.50;99.90
47168;DHT22;32931;47.778;17.806;2023-04-25T05:34:57;11.50;99.90
47168;DHT22;32931;47.778;17.806;2023-04-25T05:37:24;11.50;99.90
47168;DHT22;32931;47.778;17.806;2023-04-25T05:39:51;11.50;99.90
47168;DHT22;32931;47.778;17.806;2023-04-25T05:42:17;11.40;99.90
47168;DHT22;32931;47.778;17.806;2023-04-25T05:44:44;11.40;99.90
47168;DHT22;32931;47.778;17.806;2023-04-25T05:47:10;11.40;99.90
47168;DHT22;32931;47.778;17.806;2023-04-25T05:49:36;11.40;99.90
47168;DHT22;32931;47.778;17.806;2023-04-25T05:52:02;11.50;99.90
47168;DHT22;32931;47.778;17.806;2023-04-25T05:54:28;11.50;99.90
47168;DHT22;32931;47.778;17.806;2023-04-25T05:56:56;11.60;99.90
47168;DHT22;32931;47.778;17.806;2023-04-25T05:59:23;11.60;99.90
47168;DHT22;32931;47.778;17.806;2023-04-25T06:01:49;11.60;99.90
47168;DHT22;32931;47.778;17.806;2023-04-25T06:04:16;11.70;99.90
47168;DHT22;32931;47.778;17.806;2023-04-25T06:06:42;11.70;99.90
47168;DHT22;32931;47.778;17.806;2023-04-25T06:09:08;11.70;99.90
47168;DHT22;32931;47.778;17.806;2023-04-25T06:11:34;11.80;99.90
47168;DHT22;32931;47.778;17.806;2023-04-25T06:14:00;11.90;99.90
47168;DHT22;32931;47.778;17.806;2023-04-25T06:16:26;11.90;99.90
47168;DHT22;32931;47.778;17.806;2023-04-25T06:18:53;12.00;99.90
47168;DHT22;32931;47.778;17.806;2023-04-25T06:21:19;12.00;99.90
47168;DHT22;32931;47.778;17.806;2023-04-25T06:23:45;12.20;99.90
47168;DHT22;32931;47.778;17.806;2023-04-25T06:26:12;12.20;99.90
47168;DHT22;32931;47.778;17.806;2023-04-25T06:28:38;12.30;99.90
47168;DHT22;32931;47.778;17.806;2023-04-25T06:31:04;12.30;99.90
47168;DHT22;32931;47.778;17.806;2023-04-25T06:33:30;12.40;99.90
47168;DHT22;32931;47.778;17.806;2023-04-25T06:35:57;12.50;99.90
47168;DHT22;32931;47.778;17.806;2023-04-25T06:38:23;12.60;99.90
47168;DHT22;32931;47.778;17.806;2023-04-25T06:40:49;12.70;99.90
47168;DHT22;32931;47.778;17.806;2023-04-25T06:43:15;12.80;99.90
47168;DHT22;32931;47.778;17.806;2023-04-25T06:45:41;12.80;99.90
47168;DHT22;32931;47.778;17.806;2023-04-25T06:48:08;12.80;99.90
47168;DHT22;32931;47.778;17.806;2023-04-25T06:50:34;12.80;99.90
47168;DHT22;32931;47.778;17.806;2023-04-25T06:53:00;12.80;99.90
47168;DHT22;32931;47.778;17.806;2023-04-25T06:55:27;12.90;99.90
47168;DHT22;32931;47.778;17.806;2023-04-25T06:57:53;12.90;99.90
47168;DHT22;32931;47.778;17.806;2023-04-25T07:00:20;12.90;99.90
47168;DHT22;32931;47.778;17.806;2023-04-25T07:02:46;12.90;99.90
47168;DHT22;32931;47.778;17.806;2023-04-25T07:05:12;12.90;99.90
47168;DHT22;32931;47.778;17.806;2023-04-25T07:07:38;12.90;99.90
47168;DHT22;32931;47.778;17.806;2023-04-25T07:10:05;12.90;99.90
47168;DHT22;32931;47.778;17.806;2023-04-25T07:12:31;12.90;99.90
47168;DHT22;32931;47.778;17.806;2023-04-25T07:14:57;13.00;99.90
47168;DHT22;32931;47.778;17.806;2023-04-25T07:17:23;13.00;99.90
47168;DHT22;32931;47.778;17.806;2023-04-25T07:19:49;13.10;99.90
47168;DHT22;32931;47.778;17.806;2023-04-25T07:22:16;13.10;99.90
47168;DHT22;32931;47.778;17.806;2023-04-25T07:24:42;13.20;99.90
47168;DHT22;32931;47.778;17.806;2023-04-25T07:27:08;13.20;99.90
47168;DHT22;32931;47.778;17.806;2023-04-25T07:29:34;13.20;99.90
47168;DHT22;32931;47.778;17.806;2023-04-25T07:32:03;13.30;99.90
47168;DHT22;32931;47.778;17.806;2023-04-25T07:34:29;13.40;99.90
47168;DHT22;32931;47.778;17.806;2023-04-25T07:36:56;13.40;99.90
47168;DHT22;32931;47.778;17.806;2023-04-25T07:39:22;13.50;99.90
47168;DHT22;32931;47.778;17.806;2023-04-25T07:41:49;13.60;99.90
47168;DHT22;32931;47.778;17.806;2023-04-25T07:44:15;13.60;99.90
47168;DHT22;32931;47.778;17.806;2023-04-25T07:46:41;13.50;99.90
47168;DHT22;32931;47.778;17.806;2023-04-25T07:49:07;13.50;99.90
47168;DHT22;32931;47.778;17.806;2023-04-25T07:51:33;13.60;99.90
47168;DHT22;32931;47.778;17.806;2023-04-25T07:53:59;13.60;99.90
47168;DHT22;32931;47.778;17.806;2023-04-25T07:56:26;13.60;99.90
47168;DHT22;32931;47.778;17.806;2023-04-25T07:58:52;13.60;99.90
47168;DHT22;32931;47.778;17.806;2023-04-25T08:01:19;13.60;99.90
47168;DHT22;32931;47.778;17.806;2023-04-25T08:03:47;13.70;99.90
47168;DHT22;32931;47.778;17.806;2023-04-25T08:06:13;13.60;99.90
47168;DHT22;32931;47.778;17.806;2023-04-25T08:08:39;13.60;99.90
47168;DHT22;32931;47.778;17.806;2023-04-25T08:11:06;13.60;99.90
47168;DHT22;32931;47.778;17.806;2023-04-25T08:13:32;13.60;99.90
47168;DHT22;32931;47.778;17.806;2023-04-25T08:15:59;13.50;99.90
47168;DHT22;32931;47.778;17.806;2023-04-25T08:18:25;13.40;99.90
47168;DHT22;32931;47.778;17.806;2023-04-25T08:20:51;13.50;99.90
47168;DHT22;32931;47.778;17.806;2023-04-25T08:23:17;13.50;99.90
47168;DHT22;32931;47.778;17.806;2023-04-25T08:25:43;13.60;99.90
47168;DHT22;32931;47.778;17.806;2023-04-25T08:28:09;13.50;99.90
47168;DHT22;32931;47.778;17.806;2023-04-25T08:30:36;13.50;99.90
47168;DHT22;32931;47.778;17.806;2023-04-25T08:33:03;13.50;99.90
47168;DHT22;32931;47.778;17.806;2023-04-25T08:35:29;13.40;99.90
47168;DHT22;32931;47.778;17.806;2023-04-25T08:37:55;13.60;99.90
47168;DHT22;32931;47.778;17.806;2023-04-25T08:40:22;13.70;99.90
47168;DHT22;32931;47.778;17.806;2023-04-25T08:42:56;13.90;99.90
47168;DHT22;32931;47.778;17.806;2023-04-25T08:45:23;14.00;99.90
47168;DHT22;32931;47.778;17.806;2023-04-25T08:47:52;14.10;99.90
47168;DHT22;32931;47.778;17.806;2023-04-25T08:50:19;14.10;99.90
47168;DHT22;32931;47.778;17.806;2023-04-25T08:52:47;14.30;99.90
47168;DHT22;32931;47.778;17.806;2023-04-25T08:55:16;14.40;99.90
47168;DHT22;32931;47.778;17.806;2023-04-25T08:57:43;14.60;99.90
47168;DHT22;32931;47.778;17.806;2023-04-25T09:00:11;14.60;99.90
47168;DHT22;32931;47.778;17.806;2023-04-25T09:02:39;14.70;99.90
47168;DHT22;32931;47.778;17.806;2023-04-25T09:05:06;14.70;99.90
47168;DHT22;32931;47.778;17.806;2023-04-25T09:07:33;14.70;99.90
47168;DHT22;32931;47.778;17.806;2023-04-25T09:09:59;14.80;99.90
47168;DHT22;32931;47.778;17.806;2023-04-25T09:12:29;14.70;99.90
47168;DHT22;32931;47.778;17.806;2023-04-25T09:17:32;14.90;99.90
47168;DHT22;32931;47.778;17.806;2023-04-25T09:20:12;14.80;99.90
47168;DHT22;32931;47.778;17.806;2023-04-25T09:22:38;14.80;99.90
47168;DHT22;32931;47.778;17.806;2023-04-25T09:25:09;14.90;99.90
47168;DHT22;32931;47.778;17.806;2023-04-25T09:27:35;15.00;99.90
47168;DHT22;32931;47.778;17.806;2023-04-25T09:30:02;15.20;99.90
47168;DHT22;32931;47.778;17.806;2023-04-25T09:32:28;15.20;99.90
47168;DHT22;32931;47.778;17.806;2023-04-25T09:34:56;15.40;99.90
47168;DHT22;32931;47.778;17.806;2023-04-25T09:37:27;15.50;99.90
47168;DHT22;32931;47.778;17.806;2023-04-25T09:39:55;15.70;99.90
47168;DHT22;32931;47.778;17.806;2023-04-25T09:42:23;15.70;99.90
47168;DHT22;32931;47.778;17.806;2023-04-25T09:44:52;15.90;99.90
47168;DHT22;32931;47.778;17.806;2023-04-25T09:47:19;15.90;99.90
47168;DHT22;32931;47.778;17.806;2023-04-25T09:49:47;16.00;99.90
47168;DHT22;32931;47.778;17.806;2023-04-25T09:52:18;16.20;99.60
47168;DHT22;32931;47.778;17.806;2023-04-25T09:54:47;16.20;99.10
47168;DHT22;32931;47.778;17.806;2023-04-25T09:57:17;16.40;99.00
47168;DHT22;32931;47.778;17.806;2023-04-25T10:02:12;16.60;98.30
47168;DHT22;32931;47.778;17.806;2023-04-25T10:04:39;16.70;97.80
47168;DHT22;32931;47.778;17.806;2023-04-25T10:07:08;16.70;97.30
47168;DHT22;32931;47.778;17.806;2023-04-25T10:09:37;16.70;97.40
47168;DHT22;32931;47.778;17.806;2023-04-25T10:12:06;16.80;96.80
47168;DHT22;32931;47.778;17.806;2023-04-25T10:14:34;16.90;96.70
47168;DHT22;32931;47.778;17.806;2023-04-25T10:17:01;17.10;96.80
47168;DHT22;32931;47.778;17.806;2023-04-25T10:19:28;17.20;96.30
47168;DHT22;32931;47.778;17.806;2023-04-25T10:24:48;17.40;94.70
47168;DHT22;32931;47.778;17.806;2023-04-25T10:27:15;17.60;96.20
47168;DHT22;32931;47.778;17.806;2023-04-25T10:29:42;17.70;95.10
47168;DHT22;32931;47.778;17.806;2023-04-25T10:32:11;17.70;94.90
47168;DHT22;32931;47.778;17.806;2023-04-25T10:34:44;17.70;94.60
47168;DHT22;32931;47.778;17.806;2023-04-25T10:37:13;17.60;94.00
47168;DHT22;32931;47.778;17.806;2023-04-25T10:39:40;17.50;93.90
47168;DHT22;32931;47.778;17.806;2023-04-25T10:42:09;17.40;93.40
47168;DHT22;32931;47.778;17.806;2023-04-25T10:44:37;17.30;93.80
47168;DHT22;32931;47.778;17.806;2023-04-25T10:47:06;17.30;93.70
47168;DHT22;32931;47.778;17.806;2023-04-25T10:49:35;17.30;93.60
47168;DHT22;32931;47.778;17.806;2023-04-25T10:54:55;17.00;91.90
47168;DHT22;32931;47.778;17.806;2023-04-25T10:57:38;16.90;93.40
47168;DHT22;32931;47.778;17.806;2023-04-25T11:05:09;17.00;93.30
47168;DHT22;32931;47.778;17.806;2023-04-25T11:07:49;17.00;93.30
47168;DHT22;32931;47.778;17.806;2023-04-25T11:10:16;17.20;92.50
47168;DHT22;32931;47.778;17.806;2023-04-25T11:12:44;17.30;93.00
47168;DHT22;32931;47.778;17.806;2023-04-25T11:15:10;17.50;92.20
47168;DHT22;32931;47.778;17.806;2023-04-25T11:17:36;17.70;92.90
47168;DHT22;32931;47.778;17.806;2023-04-25T11:20:06;17.90;92.40
47168;DHT22;32931;47.778;17.806;2023-04-25T11:22:34;18.00;90.70
47168;DHT22;32931;47.778;17.806;2023-04-25T11:25:08;18.20;90.80
47168;DHT22;32931;47.778;17.806;2023-04-25T11:27:53;18.30;88.80
47168;DHT22;32931;47.778;17.806;2023-04-25T11:30:21;18.40;90.40
47168;DHT22;32931;47.778;17.806;2023-04-25T11:32:48;18.60;90.00
47168;DHT22;32931;47.778;17.806;2023-04-25T11:35:14;18.70;89.80
47168;DHT22;32931;47.778;17.806;2023-04-25T11:37:42;18.70;88.40
47168;DHT22;32931;47.778;17.806;2023-04-25T11:40:09;19.00;88.40
47168;DHT22;32931;47.778;17.806;2023-04-25T11:42:47;19.10;88.90
47168;DHT22;32931;47.778;17.806;2023-04-25T11:45:14;19.50;87.40
47168;DHT22;32931;47.778;17.806;2023-04-25T11:47:40;19.70;86.00
47168;DHT22;32931;47.778;17.806;2023-04-25T11:50:07;19.90;85.10
47168;DHT22;32931;47.778;17.806;2023-04-25T11:52:42;19.90;83.30
47168;DHT22;32931;47.778;17.806;2023-04-25T11:55:12;19.80;79.20
47168;DHT22;32931;47.778;17.806;2023-04-25T11:57:39;19.60;82.40
47168;DHT22;32931;47.778;17.806;2023-04-25T12:00:15;19.50;78.50
47168;DHT22;32931;47.778;17.806;2023-04-25T12:02:55;19.20;80.20
47168;DHT22;32931;47.778;17.806;2023-04-25T12:05:27;19.10;77.70
47168;DHT22;32931;47.778;17.806;2023-04-25T12:07:54;18.80;78.40
47168;DHT22;32931;47.778;17.806;2023-04-25T12:10:21;19.00;79.90
47168;DHT22;32931;47.778;17.806;2023-04-25T12:12:48;19.10;79.70
47168;DHT22;32931;47.778;17.806;2023-04-25T12:15:22;19.20;79.50
47168;DHT22;32931;47.778;17.806;2023-04-25T12:17:51;19.30;79.10
47168;DHT22;32931;47.778;17.806;2023-04-25T12:20:20;19.20;78.20
47168;DHT22;32931;47.778;17.806;2023-04-25T12:22:50;19.00;77.70
47168;DHT22;32931;47.778;17.806;2023-04-25T12:25:35;18.80;76.40
47168;DHT22;32931;47.778;17.806;2023-04-25T12:28:18;18.60;73.80
47168;DHT22;32931;47.778;17.806;2023-04-25T12:33:28;18.00;77.30
47168;DHT22;32931;47.778;17.806;2023-04-25T12:35:55;17.60;78.40
47168;DHT22;32931;47.778;17.806;2023-04-25T12:38:29;17.40;78.80
47168;DHT22;32931;47.778;17.806;2023-04-25T12:40:56;17.20;79.80
47168;DHT22;32931;47.778;17.806;2023-04-25T12:43:23;17.00;82.00
47168;DHT22;32931;47.778;17.806;2023-04-25T12:45:50;16.80;83.80
47168;DHT22;32931;47.778;17.806;2023-04-25T12:48:17;16.80;84.50
47168;DHT22;32931;47.778;17.806;2023-04-25T12:50:44;16.70;84.50
47168;DHT22;32931;47.778;17.806;2023-04-25T12:53:10;16.70;85.90
47168;DHT22;32931;47.778;17.806;2023-04-25T12:55:37;16.80;85.20
47168;DHT22;32931;47.778;17.806;2023-04-25T12:58:03;17.00;86.10
47168;DHT22;32931;47.778;17.806;2023-04-25T13:00:30;17.20;85.30
47168;DHT22;32931;47.778;17.806;2023-04-25T13:02:57;17.20;84.00
47168;DHT22;32931;47.778;17.806;2023-04-25T13:05:23;17.20;84.50
47168;DHT22;32931;47.778;17.806;2023-04-25T13:07:49;17.30;86.30
47168;DHT22;32931;47.778;17.806;2023-04-25T13:10:16;17.40;83.50
47168;DHT22;32931;47.778;17.806;2023-04-25T13:12:43;17.30;84.60
47168;DHT22;32931;47.778;17.806;2023-04-25T13:15:10;17.70;85.50
47168;DHT22;32931;47.778;17.806;2023-04-25T13:17:39;17.90;85.00
47168;DHT22;32931;47.778;17.806;2023-04-25T13:20:06;18.30;84.20
47168;DHT22;32931;47.778;17.806;2023-04-25T13:22:36;18.50;83.40
47168;DHT22;32931;47.778;17.806;2023-04-25T13:25:03;18.80;84.70
47168;DHT22;32931;47.778;17.806;2023-04-25T13:27:30;19.10;85.40
47168;DHT22;32931;47.778;17.806;2023-04-25T13:29:59;19.10;83.80
47168;DHT22;32931;47.778;17.806;2023-04-25T13:32:25;18.90;84.60
47168;DHT22;32931;47.778;17.806;2023-04-25T13:34:51;18.90;84.90
47168;DHT22;32931;47.778;17.806;2023-04-25T13:37:18;18.80;84.60
47168;DHT22;32931;47.778;17.806;2023-04-25T13:39:45;19.20;84.70
47168;DHT22;32931;47.778;17.806;2023-04-25T13:42:11;19.60;84.70
47168;DHT22;32931;47.778;17.806;2023-04-25T13:44:37;20.00;83.50
47168;DHT22;32931;47.778;17.806;2023-04-25T13:47:03;20.50;82.70
47168;DHT22;32931;47.778;17.806;2023-04-25T13:49:29;20.50;81.50
47168;DHT22;32931;47.778;17.806;2023-04-25T13:51:55;20.70;80.40
47168;DHT22;32931;47.778;17.806;2023-04-25T13:54:22;21.10;79.30
47168;DHT22;32931;47.778;17.806;2023-04-25T13:56:49;21.30;78.80
47168;DHT22;32931;47.778;17.806;2023-04-25T13:59:16;21.00;76.10
47168;DHT22;32931;47.778;17.806;2023-04-25T14:01:42;20.70;76.60
47168;DHT22;32931;47.778;17.806;2023-04-25T14:04:09;20.40;77.20
47168;DHT22;32931;47.778;17.806;2023-04-25T14:06:35;20.20;77.00
47168;DHT22;32931;47.778;17.806;2023-04-25T14:09:01;20.10;78.00
47168;DHT22;32931;47.778;17.806;2023-04-25T14:11:28;19.90;76.60
47168;DHT22;32931;47.778;17.806;2023-04-25T14:13:55;19.80;77.30
47168;DHT22;32931;47.778;17.806;2023-04-25T14:16:21;19.80;76.80
47168;DHT22;32931;47.778;17.806;2023-04-25T14:18:48;20.20;75.90
47168;DHT22;32931;47.778;17.806;2023-04-25T14:21:15;20.90;75.10
47168;DHT22;32931;47.778;17.806;2023-04-25T14:23:41;21.50;73.70
47168;DHT22;32931;47.778;17.806;2023-04-25T14:26:07;22.20;72.10
47168;DHT22;32931;47.778;17.806;2023-04-25T14:28:35;22.60;71.10
47168;DHT22;32931;47.778;17.806;2023-04-25T14:31:01;22.90;68.60
47168;DHT22;32931;47.778;17.806;2023-04-25T14:33:27;23.00;68.70
47168;DHT22;32931;47.778;17.806;2023-04-25T14:35:53;23.40;67.60
47168;DHT22;32931;47.778;17.806;2023-04-25T14:38:20;23.40;65.00
47168;DHT22;32931;47.778;17.806;2023-04-25T14:40:51;23.40;64.00
47168;DHT22;32931;47.778;17.806;2023-04-25T14:43:19;23.10;62.30
47168;DHT22;32931;47.778;17.806;2023-04-25T14:45:46;23.20;63.90
47168;DHT22;32931;47.778;17.806;2023-04-25T14:48:12;23.20;63.60
47168;DHT22;32931;47.778;17.806;2023-04-25T14:50:38;23.20;63.80
47168;DHT22;32931;47.778;17.806;2023-04-25T14:53:04;23.00;62.80
47168;DHT22;32931;47.778;17.806;2023-04-25T14:55:31;22.60;65.00
47168;DHT22;32931;47.778;17.806;2023-04-25T14:57:57;22.30;65.70
47168;DHT22;32931;47.778;17.806;2023-04-25T15:00:23;22.00;66.00
47168;DHT22;32931;47.778;17.806;2023-04-25T15:02:51;22.10;67.30
47168;DHT22;32931;47.778;17.806;2023-04-25T15:05:17;22.20;67.20
47168;DHT22;32931;47.778;17.806;2023-04-25T15:07:43;22.10;66.70
47168;DHT22;32931;47.778;17.806;2023-04-25T15:10:10;21.50;66.70
47168;DHT22;32931;47.778;17.806;2023-04-25T15:12:42;21.10;66.70
47168;DHT22;32931;47.778;17.806;2023-04-25T15:15:10;20.60;67.70
47168;DHT22;32931;47.778;17.806;2023-04-25T15:17:41;20.30;68.40
47168;DHT22;32931;47.778;17.806;2023-04-25T15:20:09;20.20;68.70
47168;DHT22;32931;47.778;17.806;2023-04-25T15:22:36;20.40;68.90
47168;DHT22;32931;47.778;17.806;2023-04-25T15:25:03;20.50;69.00
47168;DHT22;32931;47.778;17.806;2023-04-25T15:27:29;20.50;69.00
47168;DHT22;32931;47.778;17.806;2023-04-25T15:29:56;20.00;69.70
47168;DHT22;32931;47.778;17.806;2023-04-25T15:32:22;19.60;70.10